Сибирь

Регион "Восточная Сибирь" – сибирский макрорегион, который объединяет территории нескольких субъектов России (Новосибирская и Иркутская области, Красноярский край) и является частью территориальной структуры дивизиона VATRUS сети VATSIM.

Регион "Восточная Сибирь" включает в себя РегЦ Новосибирск, РегЦ Красноярск и РегЦ Иркутск, которые вместе покрывают воздушное пространство над территорией Сибирского федерального округа России общей площадью более 5 млн км. На территории макрорегиона располагаются более десятка международных аэропортов федерального значения. В верхнем воздушном пространстве РегЦ Новосибирск и РегЦ Красноярск проходят транссибирские трассы, обеспечивающие транзитный поток воздушных судов из Европы и Северной Америки в Азию и обратно. Воздушные трассы соединяют воздушное пространство России с воздушными пространствами Монголии, Китая и Казахстана.

В сети VATSIM обслуживание воздушного движения над территорией макрорегиона осуществляет позиция RU-ESC_FSS, позывной "Сибирь-Контроль", частота 135.225.

Лого Сибирь
Руководство

Aleksey Nevzorov

Куратор
Контакты

FSS региона
Обозначение
RU-ESC_FSS
Позывной
Сибирь-Контроль
Частота
135.225
Примечание
Top-down
Инструкторы региона
Aleksey Nevzorov (Instructor)
Anton Myglan (Senior Instructor)
Artem Smychkov (Instructor)
Kirill Ivanov * (Controller)
Kirill Shabunin * (Senior Controller)
Mikhail Gogolev (Instructor)
Mikhail Pompushko * (Senior Student)
Включает в себя

РПИ Иркутск
РПИ Красноярск
РПИ Новосибирск

Диспетчеры региона

Диспетчер Рейтинг Допуски *
Aleksey Nevzorov Instructor UIII_CTR , UNKL_CTR , UNNT_CTR
Artem Smychkov Instructor UIII_CTR , UNKL_CTR , UNNT_CTR
Artem Tsendrovsky Senior Student UNNT_CTR  *, UIII_APP, UNKL_APP(UNKL+UNKM) , UNOO_APP, UNNT_APP
Ivan Chokenyuk Controller UNKL_CTR
Karim Garifullin Controller UNKL_CTR , UNNT_CTR
Kirill Ivanov Controller UIII_CTR , UNKL_CTR , UNNT_CTR
Kirill Shabunin Senior Controller UIII_CTR , UNKL_CTR , UNNT_CTR
Mikhail Gogolev Instructor UIII_CTR , UNKL_CTR , UNNT_CTR
Sergey Korolev Instructor UIII_CTR
Tigran Areian Instructor UNNT_CTR
Alexei Gladilin Student 2 UIII_TWR, UNNT_R_APP*, UNNT_TWR
Alexey Arkasov Unknown UNNT_GND
Alexey Ginko Student UNNT_GND
Anatoly Margach Student UNNT_GND
Andrey Myagkih Student UNNT_GND
Andrey Zonov Student 2 UNNT_TWR
Anton Gluchenkov Student 2 UNNT_TWR
Arseniy Kucheev Student 2 UIII_TWR, UNKL_TWR, UNNT_R_APP*, UNEE_TWR, UNNT_TWR, UNOO_TWR, UNWW_TWR, UNBG_TWR
Artem Glinchikov Student UNNT_GND
Artem Yusko Student UNNT_GND
Bogdan Mavrodiev Student UNNT_GND
Boris Yakunin Senior Student UNNT_APP
Daniil Bulavin Student UNNT_GND
Daniil Shirshikov Student UNNT_GND
Darya Krauz Student UNNT_GND
Denis Makosov Unknown UIII_APP
Dmitriy Kabushev Student UNKL_GND
Egor Filippov Student UNNT_GND
Igor Murashkin Student UNNT_GND
Igor Zarubin Student UIII_GND
Ilia Vasilev Student UNNT_GND
Ilya Efanov Student UNNT_GND
Julia Shtaf Unknown UNNT_GND
Kirill Khan Student UNNT_GND
Kirill Valigun Student 2 UNNT_R_APP*
Konstantin Bednov Student 2 UNKL_TWR, UNOO_TWR, UNNT_R_APP*, UNNT_TWR
Mark Kalashnikov Student UNNT_GND
Matvei Korshunov Student UNNT_GND
Maxim Konovalov Student UNNT_GND
Mikhail Pompushko Senior Student UITT_TWR, UIII_APP, UNSS_R_APP, UNBG_TWR, UNWW_APP, UNNT_APP
Mikhail Shishkin Student UNNT_GND
Mikhail Shorokhov Student UNNT_GND
Nikita Razumov Student UNNT_GND
Semen Vaysman Student UNNT_TWR*
Sergey Arkasov Student 2 UNKL_TWR, UNNT_GND, UNBB_TWR, UNNT_TWR*
Stas Butrim Student UNNT_GND
Stepan Seleznev Student 2 UNNT_GND
Timofei Degtyar Student 2 UIII_TWR, UNNT_R_APP*, UNOO_TWR, UNNT_TWR
Vadim Kuzmin Student UNNT_TWR*, UNNT_GND
Valerii Diakov Student 2 UIII_TWR, UNNT_R_APP*, UNWW_TWR, UNNT_TWR
Vitaliy Vysotsky Unknown UNKL_GND
vlad vartanov Student UNNT_GND
Yulia Khudic Student UNNT_GND

Аэропорты региона

ICAO Город Название Погода
UNKL Красноярск Красноярск UNKL 100900Z 24008G13MPS 9000 -SHSN DRSN SCT033CB M09/M15 Q1021 WS R29 R29/810250 NOSIG RMK QFE740
UNAA Абакан Абакан UNAA 100900Z 20004MPS 3400 BR FU NSC M11/M14 Q1030 R02/CLRD67 NOSIG RMK QFE749
UNKS Ачинск Ачинск
UNIB Байкит Байкит
UNBB Барнаул Барнаул UNBB 100900Z 23006MPS 9999 SCT020 M16/M20 Q1033 R24/410260 NOSIG RMK QFE752
UNIP Бор Подкаменная Тунгуска
UIBB Братск Братск UIBB 100900Z 23005MPS 200V260 9999 NSC M10/M18 Q1016 R30/820345 NOSIG RMK QFE719/0959
UNIW Ванавара Ванавара
UNBG Горно-Алтайск Горно-Алтайск
UNII Енисейск Енисейск
UIBV Железногорск Железногорск
UOII Игарка Игарка
UIII Иркутск Иркутск UIII 100900Z VRB01MPS 5000 FU NSC M14/M17 Q1024 R12/810360 NOSIG RMK QFE726/0968
UNEE Кемерово Кемерово UNEE 100900Z 19006G11MPS 2500 -SN DRSN OVC044 M16/M19 Q1027 WS R23 R23/450550 NOSIG RMK QFE747
UNKM Красноярск-КЯС Черемшанка
UNKY Кызыл Кызыл
UNWW Новокузнецк Новокузнецк UNWW 100900Z 21007MPS CAVOK M15/M19 Q1032 R19/390138 NOSIG RMK QFE747
UNNT Новосибирск Новосибирск UNNT 100900Z 23006MPS 9000 -SN FEW009 OVC023 M17/M21 Q1030 R25/150050 R34/////// NOSIG RMK QFE762/1016
UOOO Норильск Норильск UOOO 100900Z 02003MPS CAVOK M25/M28 Q1018 R01/39//36 NOSIG RMK QFE749/0999
UNOO Омск Омск UNOO 100900Z 28005MPS 8000 -SHSN BKN008 BKN029CB M11/M14 Q1031 R25/390135 NOSIG RMK QFE764
UOIG Светлогорск Светлогорск
UNIS Северо-Енисейск Северо-Енисейск
UNSS Стрежевой Стрежевой
UNTT Томск Томск UNTT 100900Z 24005MPS 6000 -SHSN BKN020CB M16/M19 Q1025 R21/490345 NOSIG RMK QFE754
UIUU Улан-Удэ Улан-Удэ UIUU 100900Z 28004MPS 9999 FEW043 M16/M22 Q1026 R26/820355 NOSIG RMK MT OBSC QFE725/0966
UITT Усть-Кут Усть-Кут
UOHH Хатанга Хатанга
UIAA Чита Чита UIAA 100900Z 25008MPS 9999 NSC M08/M18 Q1017 R29/410160 NOSIG RMK QFE704/0939
UNKB Богучаны Богучаны
UIKB Бодайбо Бодайбо
UIKK Киренск Киренск
UNKI Кодинск Кодинск
UIUN Нижнеангарск Нижнеангарск
UECT Талакан Талакан
UNIT Тура Горный
UOTT Туруханск Туруханск
UIBS Усть-Илимск Усть-Илимск
UIAR Чара Чара
UNAU Шушенское Шушенское